Time;durP1;ratioP1;P1;durP2;ratioP2;P2;SDS_P1;SDS_P2;PMS_P1;PMS_P2;Temp;Humidity;BMP_temperature;BMP_pressure;BME280_temperature;BME280_humidity;BME280_pressure;Samples;Min_cycle;Max_cycle;Signal;HPM_P1;HPM_P2
2021/07/03 00:01:44;;;;;;;16.55;8.32;;;14.50;99.90;;;13.78;90.76;97667.06;4969938;28;20055;-64
2021/07/03 00:04:31;;;;;;;14.48;9.73;;;14.50;99.90;;;13.41;93.09;97668.19;4971948;28;20049;-64
2021/07/03 00:07:18;;;;;;;20.48;12.25;;;14.40;99.90;;;13.14;94.75;97670.44;4971740;28;20042;-64
2021/07/03 00:10:07;;;;;;;16.55;10.52;;;14.40;99.90;;;13.18;94.73;97666.72;4964899;28;20031;-63
2021/07/03 00:12:54;;;;;;;17.35;12.63;;;14.30;99.90;;;13.15;95.00;97672.09;4970396;28;20110;-63
2021/07/03 00:15:42;;;;;;;17.52;11.25;;;14.20;99.90;;;13.19;95.10;97677.06;4970578;28;20047;-64
2021/07/03 00:18:30;;;;;;;14.30;8.98;;;14.20;99.90;;;13.23;94.53;97669.94;4971141;28;20043;-63
2021/07/03 00:21:17;;;;;;;15.43;10.25;;;14.20;99.90;;;13.22;94.50;97670.03;4972123;28;20487;-64
2021/07/03 00:24:05;;;;;;;15.50;10.25;;;14.20;99.90;;;13.10;94.93;97671.50;4971443;28;20050;-63
2021/07/03 00:26:52;;;;;;;17.60;11.07;;;14.20;99.90;;;13.03;95.07;97670.13;4956086;28;20035;-64
2021/07/03 00:29:40;;;;;;;16.63;11.80;;;14.20;99.90;;;13.03;95.37;97663.16;4955060;28;20077;-63
2021/07/03 00:32:27;;;;;;;13.88;10.48;;;14.20;99.90;;;12.92;95.83;97668.06;4971007;28;20050;-64
2021/07/03 00:35:15;;;;;;;13.98;10.10;;;14.10;99.90;;;12.82;96.65;97670.28;4970766;28;20069;-63
2021/07/03 00:38:02;;;;;;;17.48;12.18;;;14.00;99.90;;;12.81;96.72;97671.19;4970359;28;20422;-63
2021/07/03 00:40:50;;;;;;;15.98;11.15;;;13.90;99.90;;;12.85;96.24;97667.53;4968683;28;20580;-64
2021/07/03 00:43:37;;;;;;;16.20;11.48;;;13.90;99.90;;;12.69;97.28;97675.25;4970169;28;20038;-64
2021/07/03 00:46:25;;;;;;;17.50;12.18;;;13.90;99.90;;;12.54;98.13;97670.78;4969865;28;20094;-63
2021/07/03 00:49:12;;;;;;;18.88;12.77;;;13.80;99.90;;;12.49;98.72;97673.63;4956444;28;20081;-64
2021/07/03 00:52:00;;;;;;;16.52;11.25;;;13.80;99.90;;;12.59;97.84;97666.22;4970187;28;20043;-63
2021/07/03 00:54:49;;;;;;;16.38;11.35;;;13.80;99.90;;;12.68;97.61;97665.78;4970334;28;20075;-63
2021/07/03 00:57:41;;;;;;;19.30;12.02;;;13.80;99.90;;;12.55;97.96;97669.91;4971227;28;20601;-64
2021/07/03 01:00:28;;;;;;;16.67;11.18;;;13.80;99.90;;;12.44;98.55;97665.19;4971272;28;20313;-63
2021/07/03 01:03:16;;;;;;;15.23;11.10;;;13.70;99.90;;;12.45;98.63;97673.84;4969812;28;20514;-63
2021/07/03 01:06:03;;;;;;;18.90;11.88;;;13.70;99.90;;;12.39;98.67;97680.22;4969439;28;20094;-63
2021/07/03 01:08:51;;;;;;;15.77;11.27;;;13.60;99.90;;;12.38;98.94;97673.31;4967528;28;20094;-64
2021/07/03 01:11:38;;;;;;;15.30;10.80;;;13.60;99.90;;;12.45;98.36;97673.84;4970285;28;20407;-64
2021/07/03 01:14:26;;;;;;;14.85;10.27;;;13.50;99.90;;;12.61;97.16;97669.56;4971599;28;20058;-63
2021/07/03 01:17:15;;;;;;;15.98;11.18;;;13.40;99.90;;;12.50;97.32;97675.34;4968698;28;20138;-63
2021/07/03 01:20:04;;;;;;;17.73;12.77;;;13.40;99.90;;;12.33;98.19;97681.34;4970806;28;20058;-63
2021/07/03 01:22:52;;;;;;;20.30;13.02;;;13.40;99.90;;;12.25;98.61;97683.47;4969892;28;20051;-64
2021/07/03 01:25:39;;;;;;;17.90;11.63;;;13.40;99.90;;;12.37;98.31;97683.81;4970420;28;20067;-64
2021/07/03 01:28:26;;;;;;;20.65;12.35;;;13.40;99.90;;;12.27;98.18;97679.03;4969534;28;20126;-63
2021/07/03 01:31:14;;;;;;;16.85;11.52;;;13.50;99.90;;;12.24;98.63;97684.38;4970094;28;20165;-63
2021/07/03 01:34:02;;;;;;;12.75;8.88;;;13.40;99.90;;;12.27;97.98;97684.25;4954293;28;20192;-64
2021/07/03 01:36:50;;;;;;;13.88;9.75;;;13.30;99.90;;;12.14;98.90;97683.13;4971900;28;20054;-63
2021/07/03 01:39:37;;;;;;;16.70;11.43;;;13.30;99.90;;;12.16;98.78;97681.31;4969082;28;20078;-63
2021/07/03 01:42:25;;;;;;;13.75;9.88;;;13.20;99.90;;;12.27;97.72;97681.66;4954692;28;20368;-64
2021/07/03 01:45:12;;;;;;;13.48;9.55;;;13.20;99.90;;;12.36;96.99;97677.72;4969730;28;20043;-64
2021/07/03 01:48:00;;;;;;;15.45;10.20;;;13.10;99.90;;;12.34;96.75;97683.03;4965508;28;20046;-63
2021/07/03 01:50:47;;;;;;;17.02;10.65;;;13.10;99.90;;;12.28;97.15;97678.13;4967110;28;20051;-63
2021/07/03 01:53:35;;;;;;;13.82;10.23;;;13.20;99.90;;;12.22;97.98;97680.16;4969941;28;20043;-64
2021/07/03 01:56:22;;;;;;;15.43;11.35;;;13.20;99.90;;;12.13;98.55;97673.63;4965342;28;20074;-63
2021/07/03 01:59:10;;;;;;;12.43;9.63;;;13.20;99.90;;;12.16;98.01;97670.91;4968142;28;20534;-64
2021/07/03 02:02:00;;;;;;;18.13;12.00;;;13.20;99.90;;;12.04;98.42;97669.72;4963472;28;20113;-63
2021/07/03 02:04:48;;;;;;;17.45;12.18;;;13.10;99.90;;;11.97;98.76;97665.69;4969414;28;20043;-64
2021/07/03 02:07:35;;;;;;;15.65;10.90;;;13.20;99.90;;;11.89;99.53;97660.88;4967431;28;20038;-64
2021/07/03 02:10:22;;;;;;;16.90;11.52;;;13.10;99.90;;;11.87;99.84;97669.63;4970472;28;20126;-64
2021/07/03 02:13:10;;;;;;;18.05;12.65;;;13.10;99.90;;;11.85;100.00;97669.69;4954298;28;20035;-64
2021/07/03 02:15:58;;;;;;;18.58;11.57;;;13.00;99.90;;;11.87;99.94;97667.03;4963859;28;20117;-63
2021/07/03 02:18:45;;;;;;;23.50;10.90;;;13.00;99.90;;;11.90;99.20;97667.75;4968990;28;20066;-63
2021/07/03 02:21:34;;;;;;;17.48;10.70;;;12.90;99.90;;;11.96;98.54;97666.63;4968942;28;20039;-63
2021/07/03 02:24:21;;;;;;;13.48;10.23;;;12.80;99.90;;;12.01;98.22;97666.41;4970078;28;20043;-63
2021/07/03 02:27:08;;;;;;;18.15;11.85;;;12.90;99.90;;;11.96;98.21;97664.03;4968092;28;20070;-64
2021/07/03 02:29:55;;;;;;;15.48;10.05;;;12.90;99.90;;;12.05;97.69;97665.38;4968194;28;20046;-63
2021/07/03 02:32:44;;;;;;;20.17;11.35;;;12.90;99.90;;;11.99;98.20;97661.28;4968034;28;20046;-63
2021/07/03 02:35:32;;;;;;;15.75;10.63;;;13.00;99.90;;;12.06;97.53;97660.06;4968975;28;20117;-63
2021/07/03 02:38:19;;;;;;;21.65;12.23;;;13.00;99.90;;;11.91;98.43;97661.66;4965963;28;20054;-63
2021/07/03 02:41:06;;;;;;;14.70;10.05;;;13.00;99.90;;;12.03;97.48;97655.03;4967122;28;20177;-64
2021/07/03 02:43:54;;;;;;;12.18;9.18;;;13.00;99.90;;;11.97;97.47;97651.84;4968918;28;20049;-63
2021/07/03 02:46:41;;;;;;;17.60;12.00;;;13.00;99.90;;;11.83;97.94;97648.09;4964654;28;20395;-63
2021/07/03 02:49:29;;;;;;;16.33;10.05;;;13.00;99.90;;;11.80;97.98;97653.47;4969058;28;20042;-64
2021/07/03 02:52:16;;;;;;;14.05;10.25;;;12.90;99.90;;;11.89;97.31;97649.63;4967766;28;20039;-63
2021/07/03 02:55:06;;;;;;;14.60;9.32;;;12.80;99.90;;;11.95;96.42;97653.69;4968355;28;20042;-64
2021/07/03 02:57:53;;;;;;;15.60;10.40;;;12.70;99.90;;;11.86;96.76;97650.59;4968627;28;20137;-64
2021/07/03 03:00:41;;;;;;;15.45;9.80;;;12.70;99.90;;;11.98;96.94;97657.00;4962479;28;20051;-64
2021/07/03 03:03:30;;;;;;;13.60;9.23;;;12.70;99.90;;;12.01;96.92;97649.03;4966049;28;20043;-63
2021/07/03 03:06:17;;;;;;;12.23;9.20;;;12.90;99.90;;;12.06;96.44;97647.06;4968910;28;20058;-63
2021/07/03 03:09:04;;;;;;;13.18;8.85;;;13.00;99.90;;;12.10;95.08;97647.78;4965137;28;21520;-63
2021/07/03 03:11:52;;;;;;;14.38;8.40;;;13.00;99.90;;;12.12;94.84;97645.94;4967684;28;20039;-64
2021/07/03 03:14:39;;;;;;;9.77;7.05;;;12.90;99.90;;;12.13;93.38;97650.22;4968653;28;20112;-63
2021/07/03 03:17:26;;;;;;;14.90;7.82;;;12.90;99.90;;;12.08;93.08;97654.81;4968553;28;20118;-63
2021/07/03 03:20:14;;;;;;;15.30;8.82;;;12.90;99.90;;;11.95;93.88;97651.09;4968012;28;20400;-63
2021/07/03 03:23:02;;;;;;;14.93;9.73;;;12.80;99.90;;;11.78;94.28;97652.69;4968738;28;20050;-63
2021/07/03 03:25:49;;;;;;;14.55;10.05;;;12.80;99.90;;;11.63;96.03;97663.78;4962992;28;20526;-64
2021/07/03 03:28:36;;;;;;;14.63;10.80;;;12.80;99.90;;;11.51;97.47;97653.03;4963477;28;20046;-63
2021/07/03 03:31:24;;;;;;;16.35;11.13;;;12.70;99.90;;;11.43;97.95;97659.50;4953343;28;20071;-63
2021/07/03 03:34:11;;;;;;;17.48;11.00;;;12.60;99.90;;;11.43;97.88;97656.91;4964231;28;20419;-64
2021/07/03 03:36:58;;;;;;;15.98;10.40;;;12.60;99.90;;;11.51;98.13;97658.22;4956514;28;20039;-64
2021/07/03 03:39:46;;;;;;;13.48;9.88;;;12.60;99.90;;;11.47;97.78;97651.50;4967286;28;20513;-63
2021/07/03 03:42:33;;;;;;;16.65;10.63;;;12.60;99.90;;;11.43;97.99;97654.31;4962853;28;20054;-63
2021/07/03 03:45:22;;;;;;;14.60;10.05;;;12.50;99.90;;;11.30;98.21;97654.84;4968671;28;20078;-63
2021/07/03 03:48:09;;;;;;;18.98;11.43;;;12.50;99.90;;;11.21;99.37;97646.59;4968053;28;20051;-63
2021/07/03 03:50:57;;;;;;;17.25;10.60;;;12.40;99.90;;;11.21;99.93;97654.41;4965249;28;20057;-63
2021/07/03 03:53:45;;;;;;;20.15;13.23;;;12.30;99.90;;;11.07;100.00;97647.22;4967318;28;20089;-63
2021/07/03 03:56:32;;;;;;;16.17;9.75;;;12.30;99.90;;;11.28;100.00;97648.84;4968525;28;20047;-63
2021/07/03 03:59:19;;;;;;;21.77;13.27;;;12.30;99.90;;;11.21;100.00;97646.59;4967110;28;20061;-63
2021/07/03 04:02:06;;;;;;;17.45;11.40;;;12.30;99.90;;;11.16;100.00;97644.22;4967336;28;20043;-63
2021/07/03 04:04:54;;;;;;;14.95;10.70;;;12.30;99.90;;;11.12;100.00;97632.25;4955024;28;20090;-63
2021/07/03 04:07:43;;;;;;;16.45;11.73;;;12.40;99.90;;;11.06;100.00;97632.53;4968802;28;20146;-63
2021/07/03 04:10:31;;;;;;;14.23;9.90;;;12.40;99.90;;;11.18;100.00;97644.16;4968273;28;20419;-63
2021/07/03 04:13:18;;;;;;;18.45;11.50;;;12.40;99.90;;;11.18;100.00;97639.78;4967459;28;20050;-63
2021/07/03 04:16:06;;;;;;;17.00;11.90;;;12.40;99.90;;;11.22;100.00;97633.56;4972373;28;20127;-63
2021/07/03 04:18:53;;;;;;;14.13;9.80;;;12.50;99.90;;;11.41;98.47;97637.94;4970559;28;20141;-63
2021/07/03 04:21:40;;;;;;;15.70;10.23;;;12.50;99.90;;;11.39;98.09;97630.19;4971878;28;20046;-63
2021/07/03 04:24:28;;;;;;;15.90;10.88;;;12.60;99.90;;;11.32;98.02;97636.59;4971539;28;20129;-63
2021/07/03 04:27:15;;;;;;;14.73;10.57;;;12.60;99.90;;;11.38;98.12;97632.84;4970370;28;20050;-63
2021/07/03 04:30:07;;;;;;;14.40;10.20;;;12.70;99.90;;;11.65;96.37;97636.78;4971318;28;20181;-64
2021/07/03 04:32:54;;;;;;;13.10;9.65;;;12.80;99.90;;;11.76;95.89;97628.50;4955513;28;20069;-63
2021/07/03 04:35:41;;;;;;;13.05;9.55;;;12.90;99.90;;;11.67;95.67;97634.13;4967652;28;20380;-64
2021/07/03 04:38:29;;;;;;;13.90;9.52;;;13.00;99.90;;;11.79;94.85;97632.72;4970548;28;20129;-64
2021/07/03 04:41:16;;;;;;;12.45;9.05;;;13.00;99.90;;;11.98;94.53;97632.75;4966076;28;20057;-64
2021/07/03 04:44:06;;;;;;;14.90;9.35;;;13.10;99.90;;;12.11;93.86;97626.03;4970799;28;20046;-64
2021/07/03 04:46:53;;;;;;;18.83;10.57;;;13.10;99.90;;;12.03;94.17;97633.38;4957682;28;20051;-64
2021/07/03 04:49:40;;;;;;;16.67;8.93;;;13.30;99.90;;;12.58;93.35;97629.84;4971462;28;20566;-63
2021/07/03 04:52:28;;;;;;;15.35;9.30;;;13.50;99.90;;;12.82;92.33;97623.41;4969903;28;20039;-64
2021/07/03 04:55:15;;;;;;;14.20;9.05;;;13.80;99.90;;;12.72;93.38;97616.97;4971529;28;20156;-63
2021/07/03 04:58:03;;;;;;;12.50;9.45;;;13.90;99.90;;;12.82;93.47;97628.63;4970639;28;20047;-64
2021/07/03 05:00:50;;;;;;;14.20;9.43;;;13.90;99.90;;;12.74;93.50;97626.38;4970644;28;20181;-63
2021/07/03 05:03:38;;;;;;;12.93;9.60;;;13.90;99.90;;;12.71;95.33;97628.31;4970821;28;20042;-64
2021/07/03 05:06:25;;;;;;;14.88;8.80;;;13.90;99.90;;;12.97;93.17;97627.81;4971384;28;20039;-63
2021/07/03 05:09:12;;;;;;;14.57;9.65;;;14.00;99.90;;;13.38;92.39;97624.84;4967455;28;20046;-63
2021/07/03 05:12:00;;;;;;;17.02;9.38;;;14.20;99.90;;;13.25;92.74;97625.53;4968928;28;20489;-63
2021/07/03 05:14:47;;;;;;;12.38;8.68;;;14.30;99.90;;;13.28;92.84;97628.88;4970743;28;20396;-64
2021/07/03 05:17:35;;;;;;;11.93;8.65;;;14.40;99.90;;;13.29;93.77;97614.91;4971057;28;20047;-64
2021/07/03 05:20:22;;;;;;;12.48;10.07;;;14.70;99.90;;;13.71;91.93;97613.53;4968543;28;20121;-63
2021/07/03 05:23:10;;;;;;;12.02;8.00;;;14.90;99.90;;;13.85;90.69;97615.38;4969968;28;20046;-63
2021/07/03 05:25:57;;;;;;;13.95;8.75;;;15.00;99.90;;;13.77;91.50;97615.78;4969692;28;20113;-63
2021/07/03 05:28:44;;;;;;;12.77;8.73;;;15.00;99.90;;;13.99;91.03;97612.84;4965214;28;20431;-64
2021/07/03 05:31:32;;;;;;;13.18;9.73;;;15.10;99.90;;;13.97;90.75;97616.47;4970589;28;20047;-64
2021/07/03 05:34:20;;;;;;;13.40;8.55;;;15.30;99.90;;;14.20;89.88;97608.16;4969518;28;20074;-63
2021/07/03 05:37:07;;;;;;;13.35;8.18;;;15.30;99.90;;;14.39;89.53;97605.38;4970897;28;20046;-63
2021/07/03 05:39:54;;;;;;;11.35;8.77;;;15.50;99.90;;;14.47;89.36;97606.69;4968447;28;20105;-64
2021/07/03 05:42:42;;;;;;;12.77;8.85;;;15.60;99.90;;;14.79;88.25;97603.06;4970941;28;20035;-63
2021/07/03 05:45:29;;;;;;;12.27;8.77;;;15.70;99.90;;;15.03;87.44;97611.22;4968188;28;20406;-64
2021/07/03 05:48:17;;;;;;;12.20;8.73;;;15.80;99.90;;;15.15;87.95;97614.88;4967484;28;20049;-64
2021/07/03 05:51:04;;;;;;;11.23;7.50;;;16.00;99.90;;;15.51;86.35;97621.41;4969238;28;20613;-64
2021/07/03 05:53:52;;;;;;;10.32;7.68;;;16.30;99.90;;;15.78;85.14;97621.50;4966492;28;20039;-64
2021/07/03 05:56:40;;;;;;;10.50;7.85;;;16.70;99.90;;;16.16;84.01;97610.34;4969719;28;20046;-64
2021/07/03 05:59:27;;;;;;;10.90;7.68;;;16.90;99.90;;;16.50;82.94;97608.97;4957410;28;20046;-64
2021/07/03 06:02:14;;;;;;;9.80;7.43;;;17.30;99.90;;;16.73;82.99;97612.69;4967298;28;20106;-63
2021/07/03 06:05:03;;;;;;;10.68;7.30;;;17.70;99.90;;;16.98;80.26;97613.69;4969417;28;20185;-64
2021/07/03 06:07:50;;;;;;;8.70;6.72;;;18.00;99.90;;;17.12;79.27;97612.75;4968268;28;20134;-64
2021/07/03 06:10:38;;;;;;;10.05;7.18;;;18.20;99.90;;;17.41;79.48;97615.16;4968712;28;20071;-64
2021/07/03 06:13:25;;;;;;;9.40;7.22;;;18.50;99.90;;;17.68;80.61;97612.38;4971296;28;20046;-64
2021/07/03 06:16:12;;;;;;;8.32;6.20;;;18.80;99.90;;;18.13;81.51;97607.38;4970686;28;20047;-64
2021/07/03 06:19:01;;;;;;;7.88;5.97;;;19.10;99.90;;;18.25;80.45;97601.25;4967268;28;20086;-64
2021/07/03 06:21:48;;;;;;;8.77;6.38;;;19.40;99.90;;;18.72;79.36;97598.66;4968257;28;20066;-64
2021/07/03 06:24:36;;;;;;;7.85;6.75;;;19.70;99.90;;;18.82;77.52;97599.69;4965527;28;20069;-64
2021/07/03 06:27:23;;;;;;;10.60;5.82;;;20.10;99.90;;;18.78;71.64;97595.63;4970953;28;20502;-61
2021/07/03 06:30:12;;;;;;;9.73;6.50;;;20.20;99.90;;;18.75;73.58;97604.53;4969431;28;20038;-64
2021/07/03 06:32:59;;;;;;;9.98;5.72;;;20.30;99.90;;;18.75;72.81;97604.53;4952865;28;20055;-64
2021/07/03 06:35:46;;;;;;;8.57;5.90;;;20.50;99.90;;;18.83;72.51;97596.09;4971770;28;20069;-61
2021/07/03 06:38:34;;;;;;;7.38;5.25;;;20.70;99.90;;;19.31;71.78;97605.59;4967708;28;20050;-61
2021/07/03 06:41:22;;;;;;;8.75;5.95;;;20.80;99.90;;;19.51;69.64;97593.53;4970353;28;20570;-61
2021/07/03 06:44:10;;;;;;;9.60;5.63;;;21.00;99.90;;;19.73;69.24;97592.66;4970977;28;20059;-61
2021/07/03 06:46:57;;;;;;;6.82;5.25;;;21.00;99.90;;;19.83;69.46;97597.09;4971585;28;20141;-62
2021/07/03 06:49:45;;;;;;;7.70;5.10;;;21.10;99.90;;;19.93;67.51;97601.63;4968943;28;20523;-61
2021/07/03 06:52:32;;;;;;;6.82;4.72;;;21.00;99.90;;;19.70;67.41;97592.94;4970831;28;20039;-64
2021/07/03 06:55:19;;;;;;;9.32;5.28;;;21.20;99.90;;;19.79;66.46;97605.34;4971023;28;20039;-62
2021/07/03 06:58:07;;;;;;;7.50;5.13;;;21.30;99.90;;;20.46;66.96;97597.25;4971229;28;20175;-62
2021/07/03 07:00:54;;;;;;;6.32;3.70;;;21.40;99.90;;;20.66;66.03;97603.56;4956342;28;20146;-61
2021/07/03 07:03:42;;;;;;;7.07;4.40;;;21.60;99.90;;;20.85;66.51;97609.94;4956096;28;20051;-62
2021/07/03 07:06:29;;;;;;;7.20;4.85;;;21.70;99.90;;;20.94;64.30;97608.28;4970501;28;20400;-64
2021/07/03 07:09:17;;;;;;;10.73;4.85;;;21.80;99.90;;;21.17;65.14;97599.28;4969577;28;20087;-61
2021/07/03 07:12:05;;;;;;;8.75;6.65;;;22.00;99.90;;;20.51;68.40;97609.22;4955944;28;20054;-62
2021/07/03 07:14:52;;;;;;;8.43;5.70;;;22.00;99.90;;;20.59;69.46;97612.09;4970895;28;20046;-61
2021/07/03 07:17:40;;;;;;;7.70;6.30;;;21.90;99.90;;;20.59;68.93;97606.81;4971144;28;20166;-64
2021/07/03 07:20:28;;;;;;;7.55;5.63;;;21.90;99.90;;;20.79;67.40;97613.06;4969912;28;20589;-61
2021/07/03 07:23:15;;;;;;;8.23;5.72;;;22.00;99.90;;;20.85;67.41;97608.13;4956626;28;20597;-64
2021/07/03 07:26:03;;;;;;;7.97;5.70;;;22.10;99.90;;;20.97;66.18;97603.59;4970738;28;20553;-62
2021/07/03 07:28:51;;;;;;;6.22;4.30;;;22.30;99.90;;;21.36;64.64;97610.91;4959342;28;20091;-62
2021/07/03 07:31:39;;;;;;;6.43;4.88;;;22.40;99.90;;;21.42;63.75;97608.59;4970206;28;20087;-64
2021/07/03 07:34:26;;;;;;;7.47;4.70;;;22.60;99.90;;;21.56;62.37;97606.56;4970536;28;20523;-62
2021/07/03 07:37:14;;;;;;;6.82;5.07;;;22.70;99.90;;;21.48;63.76;97602.78;4954540;28;20105;-62
2021/07/03 07:40:01;;;;;;;6.30;4.55;;;22.90;99.90;;;21.83;63.09;97604.16;4968939;28;21392;-62
2021/07/03 07:42:49;;;;;;;8.30;4.88;;;23.10;99.90;;;21.90;59.97;97599.16;4969638;28;20054;-61
2021/07/03 07:45:36;;;;;;;5.90;4.00;;;23.20;99.90;;;22.10;61.27;97594.72;4970715;28;20073;-62
2021/07/03 07:48:27;;;;;;;7.38;4.88;;;23.30;99.90;;;22.32;61.74;97591.84;4970031;28;20051;-64
2021/07/03 07:51:14;;;;;;;7.60;4.93;;;23.40;99.90;;;22.18;56.79;97596.69;4970768;28;20427;-64
2021/07/03 07:54:01;;;;;;;6.97;4.97;;;23.50;99.90;;;22.28;58.00;97594.91;4973034;28;20054;-62
2021/07/03 07:56:49;;;;;;;6.93;3.92;;;23.50;99.90;;;22.53;57.48;97589.09;4973971;28;20078;-62
2021/07/03 07:59:36;;;;;;;9.13;4.00;;;23.60;99.90;;;22.96;57.63;97585.09;4973489;28;20491;-62
2021/07/03 08:02:23;;;;;;;6.55;4.47;;;23.80;99.90;;;22.25;54.25;97579.34;4973985;28;20097;-62
2021/07/03 08:05:12;;;;;;;6.78;4.88;;;23.80;99.90;;;21.82;55.90;97577.84;4959924;28;20070;-62
2021/07/03 08:07:59;;;;;;;7.70;4.57;;;23.60;99.90;;;22.34;56.41;97576.69;4974673;28;20051;-62
2021/07/03 08:10:46;;;;;;;5.60;3.70;;;23.50;99.90;;;22.43;53.69;97574.19;4970516;28;20075;-62
2021/07/03 08:13:34;;;;;;;6.45;4.00;;;23.90;99.90;;;22.60;53.64;97572.63;4970516;28;20434;-62
2021/07/03 08:16:21;;;;;;;6.57;4.32;;;23.80;99.90;;;22.42;53.98;97568.06;4974438;28;20043;-62
2021/07/03 08:19:09;;;;;;;6.95;4.03;;;23.50;99.90;;;21.91;52.82;97574.38;4973178;28;20127;-62
2021/07/03 08:21:59;;;;;;;5.72;3.45;;;23.20;99.90;;;22.67;53.57;97573.72;4974796;28;20592;-62
2021/07/03 08:24:46;;;;;;;7.88;4.13;;;23.30;99.90;;;22.42;52.30;97570.72;4969889;28;20047;-62
2021/07/03 08:27:36;;;;;;;5.82;3.45;;;23.60;99.90;;;22.86;52.07;97567.59;4974280;28;20202;-62
2021/07/03 08:30:24;;;;;;;6.85;3.70;;;23.70;99.90;;;23.41;53.93;97574.84;4973112;28;20050;-62
2021/07/03 08:33:12;;;;;;;7.68;4.10;;;24.10;99.90;;;23.85;53.79;97575.88;4958837;28;20065;-62
2021/07/03 08:35:59;;;;;;;5.80;3.97;;;24.60;99.90;;;23.92;50.95;97566.34;4974239;28;20141;-62
2021/07/03 08:38:46;;;;;;;5.88;3.70;;;24.90;99.90;;;24.14;50.67;97562.44;4974110;28;20351;-62
2021/07/03 08:41:35;;;;;;;7.43;4.03;;;24.90;99.90;;;24.32;48.57;97564.25;4967797;28;20038;-62
2021/07/03 08:44:22;;;;;;;4.07;3.20;;;25.30;99.90;;;24.35;46.89;97562.13;4959143;28;20070;-61
2021/07/03 08:47:10;;;;;;;5.65;3.45;;;25.50;99.90;;;23.79;45.84;97563.25;4958867;28;20106;-61
2021/07/03 08:50:00;;;;;;;6.43;3.72;;;25.70;99.90;;;23.49;49.51;97553.72;4972470;28;20078;-62
2021/07/03 08:52:48;;;;;;;5.57;3.17;;;25.70;99.90;;;24.23;47.77;97555.38;4961391;28;20038;-62
2021/07/03 08:55:36;;;;;;;6.15;3.17;;;25.60;99.90;;;23.76;46.87;97550.25;4977334;28;20097;-62
2021/07/03 08:58:23;;;;;;;8.65;3.28;;;25.50;99.90;;;23.69;45.19;97549.16;4973011;28;20043;-61
2021/07/03 09:01:10;;;;;;;5.05;3.17;;;25.40;99.90;;;23.53;44.02;97550.63;4973052;28;20529;-62
2021/07/03 09:03:57;;;;;;;5.93;3.53;;;25.20;99.90;;;23.99;45.53;97548.00;4972912;28;20133;-62
2021/07/03 09:06:45;;;;;;;4.97;2.65;;;25.40;99.90;;;23.49;44.83;97551.06;4972829;28;20627;-62
2021/07/03 09:09:32;;;;;;;6.85;2.92;;;25.40;99.90;;;23.74;44.19;97553.09;4970820;28;20047;-61
2021/07/03 09:12:33;;;;;;;4.28;2.90;;;25.50;99.90;;;26.33;41.34;97540.88;4970927;28;20059;-62
2021/07/03 09:15:25;;;;;;;6.10;3.13;;;25.60;99.90;;;24.58;41.43;97541.28;4969562;28;20051;-62
2021/07/03 09:18:14;;;;;;;;;;;25.90;99.80;;;27.58;37.89;97548.53;4973334;28;20341;-62
2021/07/03 09:21:05;;;;;;;4.43;2.65;;;25.80;99.90;;;27.62;37.12;97545.34;4971820;28;20004;-62
2021/07/03 09:23:52;;;;;;;5.38;2.53;;;26.20;99.90;;;28.83;36.42;97538.50;4971914;28;20707;-61
2021/07/03 09:26:39;;;;;;;3.75;2.30;;;27.00;99.90;;;27.83;35.93;97534.03;4971708;28;20098;-61
2021/07/03 09:29:27;;;;;;;3.65;2.20;;;27.50;98.80;;;28.60;35.18;97535.88;4973298;28;20050;-61
2021/07/03 09:32:15;;;;;;;5.75;2.72;;;27.90;98.60;;;24.82;39.70;97539.78;4958116;28;20093;-61
2021/07/03 09:35:09;;;;;;;4.95;2.17;;;27.90;97.00;;;25.60;37.09;97541.53;4972540;28;20464;-61
2021/07/03 09:38:07;;;;;;;4.28;2.45;;;27.40;96.50;;;26.43;37.09;97538.03;4971324;28;20070;-61
2021/07/03 09:41:18;;;;;;;7.80;2.15;;;26.90;97.90;;;27.10;37.90;97546.66;4959075;28;20051;-61
2021/07/03 09:44:11;;;;;;;8.02;2.20;;;27.00;98.60;;;28.94;34.54;97543.41;4969637;28;20038;-61
2021/07/03 09:46:58;;;;;;;2.90;1.80;;;27.70;98.80;;;30.00;32.66;97544.00;4970721;28;20050;-61
2021/07/03 09:49:46;;;;;;;4.10;2.28;;;28.30;97.40;;;30.07;32.84;97536.03;4972199;28;20058;-61
2021/07/03 09:52:36;;;;;;;3.78;2.00;;;28.80;97.00;;;28.95;32.59;97536.22;4971111;28;20046;-61
2021/07/03 09:55:23;;;;;;;4.25;1.50;;;28.90;95.80;;;27.20;33.65;97542.97;4965864;28;20153;-61
2021/07/03 09:58:12;;;;;;;2.72;1.50;;;28.30;94.90;;;29.76;32.77;97537.13;4958958;28;20047;-61
2021/07/03 10:00:59;;;;;;;3.10;1.90;;;28.50;96.60;;;30.17;32.45;97533.03;4973028;28;20063;-61
2021/07/03 10:03:47;;;;;;;2.75;1.50;;;28.70;96.50;;;30.87;31.17;97528.75;4970819;28;20047;-61
2021/07/03 10:06:47;;;;;;;4.88;2.00;;;29.20;95.90;;;31.00;31.30;97522.66;4968508;28;20133;-61
2021/07/03 10:09:53;;;;;;;3.30;1.80;;;29.70;96.00;;;31.31;31.78;97518.69;4971356;28;20066;-61
2021/07/03 10:12:48;;;;;;;3.17;2.10;;;30.20;96.20;;;31.41;30.82;97516.53;4957851;28;20058;-62
2021/07/03 10:15:36;;;;;;;3.47;1.90;;;30.40;95.60;;;30.99;29.38;97513.78;4957621;28;20071;-62
2021/07/03 10:18:23;;;;;;;4.63;1.90;;;30.60;93.80;;;32.05;29.10;97509.94;4971664;28;20050;-62
2021/07/03 10:21:22;;;;;;;3.22;1.80;;;30.50;94.30;;;31.59;30.07;97507.91;4970191;28;20063;-62
2021/07/03 10:24:22;;;;;;;2.60;2.10;;;30.70;94.10;;;29.99;29.91;97512.91;4971047;28;20107;-61
2021/07/03 10:27:28;;;;;;;3.65;2.05;;;31.00;92.70;;;31.56;30.03;97501.09;4957455;28;20050;-62
2021/07/03 10:30:33;;;;;;;3.28;1.95;;;30.90;94.60;;;32.49;29.82;97495.91;4971692;28;20494;-62
2021/07/03 10:33:22;;;;;;;3.30;2.17;;;31.50;94.10;;;32.11;28.28;97509.09;4952097;29;20051;-62
2021/07/03 10:36:21;;;;;;;4.00;2.15;;;;;;;30.76;30.39;97503.28;4952932;28;20094;-62
2021/07/03 10:39:09;;;;;;;5.13;1.70;;;30.60;92.70;;;26.06;33.85;97507.44;4958004;28;20086;-62
2021/07/03 10:41:56;;;;;;;4.18;2.13;;;29.40;91.00;;;26.14;35.77;97503.94;4970622;28;20145;-62
2021/07/03 10:44:43;;;;;;;2.65;1.67;;;28.40;92.00;;;28.30;33.28;97502.88;4957361;28;20205;-61
2021/07/03 10:47:33;;;;;;;3.85;2.15;;;28.80;93.80;;;29.67;32.17;97499.97;4970366;28;20074;-61
2021/07/03 10:50:31;;;;;;;3.65;1.95;;;29.50;93.00;;;28.65;31.96;97509.47;4970079;28;20050;-61
2021/07/03 10:53:24;;;;;;;3.63;2.10;;;29.50;92.70;;;26.58;36.12;97507.13;4970868;28;20464;-61
2021/07/03 10:56:14;;;;;;;2.53;1.88;;;29.40;92.60;;;26.53;35.75;97509.44;4970176;28;20054;-61
2021/07/03 10:59:10;;;;;;;4.90;2.70;;;28.90;92.50;;;26.61;37.32;97500.63;4956086;28;20530;-61
2021/07/03 11:02:14;;;;;;;5.68;2.30;;;28.60;93.40;;;27.41;34.40;97500.59;4970675;28;20074;-61
2021/07/03 11:05:11;;;;;;;4.22;2.65;;;28.30;93.20;;;26.79;36.48;97495.94;4970454;28;20054;-62
2021/07/03 11:08:10;;;;;;;6.50;3.00;;;28.40;93.50;;;26.28;37.22;97495.31;4971153;28;20469;-62
2021/07/03 11:11:11;;;;;;;4.07;2.75;;;28.30;93.40;;;28.66;36.27;97475.56;4950409;28;20084;-62
2021/07/03 11:13:58;;;;;;;4.47;2.33;;;28.60;95.00;;;29.01;36.19;97471.34;4956827;28;20030;-61
2021/07/03 11:16:57;;;;;;;4.22;2.47;;;29.40;95.60;;;25.90;37.92;97476.34;4969020;28;20162;-61
2021/07/03 11:19:47;;;;;;;4.97;2.50;;;29.30;92.60;;;25.57;39.96;97472.75;4970385;28;20047;-61
2021/07/03 11:22:43;;;;;;;3.92;2.80;;;28.70;93.30;;;25.69;38.00;97476.78;4971193;28;20054;-61
2021/07/03 11:25:36;;;;;;;4.38;2.22;;;28.10;93.00;;;26.94;35.33;97471.25;4973666;28;20055;-62
2021/07/03 11:28:25;;;;;;;4.30;1.80;;;27.80;93.20;;;26.79;36.33;97471.97;4973728;28;20043;-61
2021/07/03 11:31:12;;;;;;;4.53;2.85;;;27.60;93.70;;;27.06;34.60;97475.22;4973983;28;20506;-62
2021/07/03 11:34:00;;;;;;;2.60;1.90;;;28.00;93.30;;;28.73;32.89;97457.81;4974452;28;20062;-61
2021/07/03 11:36:55;;;;;;;4.10;2.20;;;28.90;93.00;;;27.17;34.58;97472.19;4974746;28;20504;-61
2021/07/03 11:39:54;;;;;;;5.28;2.30;;;29.50;92.70;;;29.33;32.94;97447.94;4974369;28;20518;-61
2021/07/03 11:42:45;;;;;;;4.78;2.65;;;29.50;92.80;;;28.16;33.22;97449.28;4955848;28;20062;-61